Time;durP1;ratioP1;P1;durP2;ratioP2;P2;SDS_P1;SDS_P2;PMS_P1;PMS_P2;Temp;Humidity;BMP_temperature;BMP_pressure;BME280_temperature;BME280_humidity;BME280_pressure;Samples;Min_cycle;Max_cycle;Signal;HPM_P1;HPM_P2
2023/09/11 00:01:49;;;;;;;18.93;9.40;;;;;;;21.59;100.00;15027.78;6242731;23;20027;-75
2023/09/11 00:04:14;;;;;;;12.33;9.97;;;;;;;21.53;100.00;15026.13;6242209;23;20004;-75
2023/09/11 00:06:39;;;;;;;18.27;10.30;;;;;;;21.57;100.00;13630.47;6244282;23;20027;-75
2023/09/11 00:09:05;;;;;;;11.33;8.93;;;;;;;21.53;100.00;14327.75;6242758;23;20330;-75
2023/09/11 00:11:30;;;;;;;20.33;9.97;;;;;;;21.46;100.00;13627.69;6216739;23;20004;-75
2023/09/11 00:13:56;;;;;;;19.83;8.90;;;;;;;21.43;100.00;15023.38;6242842;23;20352;-75
2023/09/11 00:16:21;;;;;;;21.43;9.60;;;;;;;21.41;100.00;13975.63;6216159;23;20058;-75
2023/09/11 00:18:47;;;;;;;17.83;9.20;;;;;;;21.40;100.00;13975.22;6242939;23;20018;-75
2023/09/11 00:21:12;;;;;;;20.73;10.27;;;;;;;21.35;100.00;13624.91;6243078;23;20004;-75
2023/09/11 00:23:37;;;;;;;20.27;9.17;;;;;;;21.30;100.00;12228.00;6216241;23;19996;-74
2023/09/11 00:26:03;;;;;;;14.53;9.77;;;;;;;21.25;100.00;10831.81;6243112;23;20026;-74
2023/09/11 00:28:29;;;;;;;18.47;10.53;;;;;;;21.26;100.00;9088.91;6258234;22;19992;-76
2023/09/11 00:31:00;;;;;;;13.77;9.25;;;;;;;21.22;100.00;8739.69;6239445;23;20000;-75
2023/09/11 00:33:26;;;;;;;11.95;9.38;;;;;;;21.20;100.00;10482.13;6266704;23;20011;-75
2023/09/11 00:35:52;;;;;;;18.60;10.03;;;;;;;21.16;100.00;9087.19;6236251;23;20342;-75
2023/09/11 00:38:17;;;;;;;20.73;9.90;;;;;;;21.15;100.00;8390.09;6264510;23;20004;-75
2023/09/11 00:40:42;;;;;;;15.30;9.33;;;;;;;21.13;100.00;10480.72;6262787;23;20010;-75
2023/09/11 00:43:08;;;;;;;16.03;9.40;;;;;;;21.11;100.00;9434.69;6262557;23;20004;-75
2023/09/11 00:45:35;;;;;;;15.70;10.63;;;;;;;21.07;100.00;10131.03;6262985;23;20008;-76
2023/09/11 00:48:00;;;;;;;13.00;9.35;;;;;;;20.99;100.00;8039.09;6234906;23;20007;-76
2023/09/11 00:50:26;;;;;;;16.33;9.18;;;;;;;20.98;100.00;7690.66;6262311;23;20075;-76
2023/09/11 00:52:52;;;;;;;14.07;9.13;;;;;;;20.94;100.00;6645.38;6263339;23;20004;-75
2023/09/11 00:55:19;;;;;;;19.90;10.30;;;;;;;20.93;100.00;7689.78;6266437;23;20005;-76
2023/09/11 00:57:44;;;;;;;16.98;9.80;;;;;;;20.91;100.00;5948.75;6240372;23;20014;-76
2023/09/11 01:00:12;;;;;;;16.87;10.13;;;;;;;20.86;100.00;4904.19;6238883;23;20016;-75
2023/09/11 01:02:37;;;;;;;18.27;10.20;;;;;;;20.87;100.00;3860.56;6263411;23;20309;-75
2023/09/11 01:05:07;;;;;;;17.07;9.60;;;;;;;20.86;100.00;4556.22;6267056;23;20004;-76
2023/09/11 01:07:33;;;;;;;17.90;9.85;;;;;;;20.88;100.00;4556.47;6242253;23;20000;-76
2023/09/11 01:09:59;;;;;;;21.58;11.10;;;;;;;20.90;100.00;5252.63;6269714;23;20060;-75
2023/09/11 01:12:25;;;;;;;24.60;11.90;;;;;;;21.05;100.00;4906.28;6243064;23;20004;-76
2023/09/11 01:14:50;;;;;;;23.45;12.10;;;;;;;21.09;100.00;7344.00;6244326;23;20004;-76
2023/09/11 01:35:22;;;;;;;23.30;12.52;;;;;;;20.71;100.00;10123.88;6200346;23;20029;-77
2023/09/11 01:37:49;;;;;;;18.33;11.70;;;;;;;20.69;100.00;9775.16;6209313;23;20012;-76
2023/09/11 01:40:15;;;;;;;17.95;12.13;;;;;;;20.71;100.00;10472.22;6182773;23;20005;-74
2023/09/11 01:42:48;;;;;;;18.50;11.17;;;;;;;20.75;100.00;9776.31;6204080;23;20007;-74
2023/09/11 01:45:18;;;;;;;14.10;10.80;;;;;;;20.69;100.00;9427.00;6204742;23;20306;-74
2023/09/11 01:47:45;;;;;;;28.13;11.20;;;;;;;20.67;100.00;12213.47;6203676;23;20040;-76
2023/09/11 01:50:15;;;;;;;17.67;10.88;;;;;;;20.70;100.00;9775.38;6203243;23;20001;-76
2023/09/11 01:52:43;;;;;;;16.58;11.07;;;;;;;20.62;100.00;10122.09;6204664;23;20001;-75
2023/09/11 01:55:08;;;;;;;20.77;11.93;;;;;;;20.59;100.00;8032.59;6204676;23;20059;-75
2023/09/11 01:57:34;;;;;;;21.67;11.60;;;;;;;20.52;100.00;9772.03;6178714;23;20494;-75
2023/09/11 01:59:59;;;;;;;24.07;12.03;;;;;;;20.47;100.00;7334.69;6205069;23;20012;-75
2023/09/11 02:02:24;;;;;;;17.43;11.50;;;;;;;20.41;100.00;6985.88;6178473;23;20013;-75
2023/09/11 02:04:50;;;;;;;19.30;11.20;;;;;;;20.39;100.00;7333.41;6179024;23;20009;-74
2023/09/11 02:07:15;;;;;;;20.00;11.50;;;;;;;20.38;100.00;5594.19;6205007;23;20004;-75
2023/09/11 02:09:41;;;;;;;22.13;11.87;;;;;;;20.33;100.00;4898.22;6204298;23;20061;-75
2023/09/11 02:12:07;;;;;;;17.23;10.23;;;;;;;20.34;100.00;3855.50;6205478;23;20013;-75
2023/09/11 02:14:32;;;;;;;17.42;11.45;;;;;;;20.34;100.00;2465.53;6204720;23;20009;-75
2023/09/11 02:17:02;;;;;;;12.80;11.57;;;;;;;20.31;100.00;1423.22;6177162;23;20009;-75
2023/09/11 02:19:28;;;;;;;22.52;12.57;;;;;;;20.40;100.00;729.03;6203667;23;20013;-76
2023/09/11 02:21:54;;;;;;;24.73;14.13;;;;;;;20.47;100.00;-659.78;6203776;23;20011;-75
2023/09/11 02:24:19;;;;;;;17.07;13.90;;;;;;;20.53;100.00;-1354.13;6182135;23;20009;-77
2023/09/11 02:26:44;;;;;;;23.80;13.23;;;;;;;20.50;100.00;729.47;6234098;23;20123;-75
2023/09/11 02:29:10;;;;;;;26.73;14.20;;;;;;;20.41;100.00;1771.16;6207476;23;20111;-74
2023/09/11 02:31:35;;;;;;;26.03;12.27;;;;;;;20.36;100.00;3508.16;6233067;23;20028;-74
2023/09/11 02:34:00;;;;;;;21.63;12.43;;;;;;;20.31;100.00;3855.22;6243454;23;20024;-76
2023/09/11 02:36:26;;;;;;;19.37;13.40;;;;;;;20.26;100.00;3159.78;6267858;23;20058;-75
2023/09/11 02:38:51;;;;;;;16.33;12.63;;;;;;;20.26;100.00;1770.28;6267183;23;19996;-75
2023/09/11 02:41:17;;;;;;;24.97;14.73;;;;;;;20.31;100.00;-660.16;6265348;23;20004;-75
2023/09/11 02:43:42;;;;;;;23.50;15.10;;;;;;;20.46;100.00;-2395.53;6265461;23;20003;-75
2023/09/11 02:46:08;;;;;;;23.07;15.00;;;;;;;20.49;100.00;-2048.44;6267501;23;20068;-76
2023/09/11 02:48:33;;;;;;;24.02;14.88;;;;;;;20.51;100.00;-312.44;6266851;23;20008;-75
2023/09/11 02:50:58;;;;;;;31.70;15.30;;;;;;;20.48;100.00;382.06;6268057;23;20388;-76
2023/09/11 02:53:24;;;;;;;29.43;15.53;;;;;;;20.45;100.00;381.94;6267450;23;20000;-76
2023/09/11 02:55:49;;;;;;;30.63;14.87;;;;;;;20.43;100.00;381.84;6268106;23;20050;-75
2023/09/11 02:58:15;;;;;;;22.73;16.03;;;;;;;20.46;100.00;-1007.03;6235042;23;20055;-76
2023/09/11 03:00:40;;;;;;;22.73;16.57;;;;;;;20.48;100.00;-1701.31;6260285;23;20011;-76
2023/09/11 03:03:05;;;;;;;22.63;16.30;;;;;;;20.47;100.00;-1007.00;6233900;23;20000;-76
2023/09/11 03:05:32;;;;;;;26.83;15.80;;;;;;;20.46;100.00;-312.56;6265029;23;20039;-76
2023/09/11 03:07:58;;;;;;;23.95;15.40;;;;;;;20.50;100.00;34.84;6259106;23;20008;-76
2023/09/11 03:10:23;;;;;;;24.90;15.40;;;;;;;20.44;100.00;381.91;6233716;23;20004;-76
2023/09/11 03:12:49;;;;;;;20.97;15.47;;;;;;;20.39;100.00;1771.03;6259596;23;20039;-75
2023/09/11 03:15:14;;;;;;;21.13;14.80;;;;;;;20.46;100.00;1076.69;6235833;23;20000;-75
2023/09/11 03:17:40;;;;;;;33.63;15.80;;;;;;;20.45;100.00;1771.41;6234477;23;20168;-75
2023/09/11 03:20:07;;;;;;;22.67;14.83;;;;;;;20.44;100.00;2118.81;6236566;23;20016;-76
2023/09/11 03:22:32;;;;;;;24.77;15.27;;;;;;;20.51;100.00;3161.94;6266386;23;20000;-76
2023/09/11 03:24:58;;;;;;;22.67;15.77;;;;;;;20.51;100.00;4204.78;6266537;23;20000;-76
2023/09/11 03:27:23;;;;;;;19.60;13.67;;;;;;;20.47;100.00;6291.00;6267222;23;20058;-76
2023/09/11 03:29:52;;;;;;;22.43;15.23;;;;;;;20.59;100.00;6988.44;6268056;23;20001;-76
2023/09/11 03:32:17;;;;;;;27.33;14.90;;;;;;;20.62;100.00;9425.69;6268023;23;20311;-77
2023/09/11 03:34:42;;;;;;;20.67;13.97;;;;;;;20.63;100.00;10819.03;6268965;23;20031;-76
2023/09/11 03:37:08;;;;;;;21.63;14.17;;;;;;;20.62;100.00;12560.81;6269167;22;20007;-77
2023/09/11 03:39:33;;;;;;;18.80;12.77;;;;;;;20.62;100.00;13606.56;6235556;23;20480;-75
2023/09/11 03:41:59;;;;;;;32.63;13.17;;;;;;;20.54;100.00;14650.34;6262617;23;20004;-75
2023/09/11 03:44:24;;;;;;;23.37;12.83;;;;;;;20.51;100.00;13603.78;6265932;22;20016;-75
2023/09/11 03:46:49;;;;;;;27.13;13.80;;;;;;;20.46;100.00;13951.06;6262821;23;20052;-75
2023/09/11 03:49:15;;;;;;;25.77;13.30;;;;;;;20.41;100.00;13949.75;6263790;23;19996;-75
2023/09/11 03:51:40;;;;;;;17.87;13.10;;;;;;;20.33;100.00;13947.56;6264149;23;20004;-74
2023/09/11 03:54:09;;;;;;;21.40;12.80;;;;;;;20.29;100.00;13946.53;6264042;23;20004;-75
2023/09/11 03:56:35;;;;;;;22.85;12.32;;;;;;;20.24;100.00;13248.63;6262415;23;20000;-75
2023/09/11 03:59:00;;;;;;;21.73;12.97;;;;;;;20.28;100.00;12901.13;6259243;23;20035;-74
2023/09/11 04:01:26;;;;;;;26.00;13.70;;;;;;;20.31;100.00;13947.03;6260824;23;20000;-74
2023/09/11 04:03:51;;;;;;;24.90;12.57;;;;;;;20.37;100.00;17086.19;6260284;23;20285;-74
2023/09/11 04:06:17;;;;;;;16.50;11.63;;;;;;;20.56;100.00;23027.38;6261427;23;20010;-77
2023/09/11 04:08:42;;;;;;;25.60;12.13;;;;;;;20.56;100.00;27222.47;6264290;23;20010;-77
2023/09/11 04:11:07;;;;;;;26.97;13.43;;;;;;;20.62;100.00;31425.31;6262396;23;20079;-75
2023/09/11 04:13:33;;;;;;;18.17;11.43;;;;;;;20.57;100.00;32473.50;6262648;23;20015;-74
2023/09/11 04:15:59;;;;;;;19.55;11.77;;;;;;;20.57;100.00;34224.88;6261215;23;20000;-74
2023/09/11 04:18:24;;;;;;;22.27;12.67;;;;;;;20.57;100.00;34575.31;6234122;23;20008;-75
2023/09/11 04:20:50;;;;;;;22.37;11.23;;;;;;;20.58;100.00;34926.66;6262328;23;20481;-75
2023/09/11 04:23:15;;;;;;;19.27;12.20;;;;;;;20.53;100.00;35274.13;6260350;23;19988;-74
2023/09/11 04:25:43;;;;;;;22.67;12.53;;;;;;;20.48;100.00;34920.38;6243273;23;20012;-73
2023/09/11 04:28:09;;;;;;;26.30;12.10;;;;;;;20.44;100.00;32816.16;6213588;23;20000;-74
2023/09/11 04:30:34;;;;;;;19.93;11.30;;;;;;;20.43;100.00;31765.13;6239411;23;20082;-73
2023/09/11 04:33:00;;;;;;;19.10;13.23;;;;;;;20.37;100.00;30361.78;6213642;23;20350;-72
2023/09/11 04:35:25;;;;;;;18.40;11.40;;;;;;;20.39;100.00;30712.81;6242180;23;20012;-71
2023/09/11 04:37:51;;;;;;;29.83;12.37;;;;;;;20.43;100.00;31064.97;6211563;23;20093;-75
2023/09/11 04:40:16;;;;;;;22.60;12.70;;;;;;;20.41;100.00;32114.13;6241732;23;20024;-72
2023/09/11 04:42:43;;;;;;;23.10;12.87;;;;;;;20.32;100.00;31759.38;6240920;23;20015;-72
2023/09/11 04:45:09;;;;;;;24.58;12.55;;;;;;;20.33;100.00;29659.88;6241017;23;20016;-72
2023/09/11 04:47:34;;;;;;;28.67;12.53;;;;;;;20.28;100.00;29307.75;6242104;23;20031;-72
2023/09/11 04:50:00;;;;;;;16.33;11.13;;;;;;;20.31;100.00;28959.19;6242759;23;20230;-72
2023/09/11 04:52:25;;;;;;;21.20;11.90;;;;;;;20.30;100.00;30008.19;6243133;23;20003;-72
2023/09/11 04:54:53;;;;;;;24.20;12.33;;;;;;;20.28;100.00;30007.16;6242568;23;20096;-75
2023/09/11 04:57:19;;;;;;;24.88;12.98;;;;;;;20.22;100.00;29654.50;6215096;23;20093;-73
2023/09/11 04:59:44;;;;;;;25.13;12.10;;;;;;;20.21;100.00;28954.19;6240492;23;20004;-73
2023/09/11 05:02:10;;;;;;;22.13;12.03;;;;;;;20.06;100.00;28946.91;6240385;23;20004;-74
2023/09/11 05:04:35;;;;;;;20.53;12.67;;;;;;;20.07;100.00;26500.34;6214846;23;20012;-73
2023/09/11 05:07:01;;;;;;;25.13;11.73;;;;;;;20.02;100.00;24402.34;6214145;23;20261;-73
2023/09/11 05:09:27;;;;;;;19.25;12.85;;;;;;;20.06;100.00;23705.63;6242211;23;20004;-74
2023/09/11 05:11:52;;;;;;;21.73;12.53;;;;;;;19.96;100.00;24399.78;6215138;23;20004;-74
2023/09/11 05:14:18;;;;;;;19.73;11.90;;;;;;;19.97;100.00;24400.00;6242835;23;20020;-74
2023/09/11 05:16:43;;;;;;;22.93;12.20;;;;;;;19.97;100.00;23003.47;6240035;23;20030;-74
2023/09/11 05:19:09;;;;;;;23.17;12.87;;;;;;;20.07;100.00;21262.28;6239412;23;20108;-73
2023/09/11 05:21:36;;;;;;;18.70;11.80;;;;;;;20.01;100.00;22656.22;6241495;23;20007;-73
2023/09/11 05:24:02;;;;;;;24.95;12.82;;;;;;;20.06;100.00;22658.00;6277262;22;20019;-73
2023/09/11 05:26:28;;;;;;;20.75;12.55;;;;;;;20.05;100.00;23705.00;6302642;22;20074;-73
2023/09/11 05:28:53;;;;;;;21.07;12.00;;;;;;;19.97;100.00;24050.81;6302318;22;20074;-75
2023/09/11 05:31:18;;;;;;;20.60;12.50;;;;;;;19.93;100.00;22653.03;6301437;22;20496;-73
2023/09/11 05:33:44;;;;;;;23.83;11.93;;;;;;;19.92;100.00;19512.78;6301471;22;20043;-75
2023/09/11 05:36:09;;;;;;;21.87;12.30;;;;;;;19.94;100.00;19164.59;6301895;22;20432;-75
2023/09/11 05:38:35;;;;;;;25.23;12.13;;;;;;;19.98;100.00;21259.09;6300944;22;20086;-72
2023/09/11 05:41:00;;;;;;;24.20;12.43;;;;;;;20.00;100.00;19864.19;6274353;22;20337;-72
2023/09/11 05:43:27;;;;;;;25.43;13.03;;;;;;;20.13;100.00;21613.56;6303631;22;20430;-72
2023/09/11 05:45:54;;;;;;;24.23;12.35;;;;;;;20.17;100.00;21615.28;6273774;22;20003;-73
2023/09/11 05:48:19;;;;;;;24.40;11.70;;;;;;;20.25;100.00;21967.28;6302628;22;20011;-74
2023/09/11 05:50:44;;;;;;;19.20;12.70;;;;;;;20.31;100.00;22318.78;6302713;22;20125;-74
2023/09/11 05:53:10;;;;;;;30.00;13.63;;;;;;;20.34;100.00;22669.22;6275015;22;20003;-75
2023/09/11 05:55:36;;;;;;;22.07;12.17;;;;;;;20.42;100.00;23371.25;6305845;22;20028;-72
2023/09/11 05:58:02;;;;;;;26.30;13.43;;;;;;;20.58;100.00;27223.66;6277899;22;20014;-75
2023/09/11 06:00:28;;;;;;;28.40;13.93;;;;;;;20.64;100.00;28275.88;6305622;22;20022;-74
2023/09/11 06:02:53;;;;;;;32.00;14.53;;;;;;;20.80;100.00;34238.69;6305453;22;20391;-76
2023/09/11 06:05:19;;;;;;;28.33;14.33;;;;;;;20.88;100.00;38452.72;6305587;22;20053;-74
2023/09/11 06:07:45;;;;;;;19.67;13.53;;;;;;;21.02;100.00;40920.00;6305492;22;20003;-74
2023/09/11 06:10:12;;;;;;;24.63;14.48;;;;;;;21.09;100.00;46198.00;6305496;22;20328;-73
2023/09/11 06:12:38;;;;;;;27.55;15.52;;;;;;;21.14;100.00;49721.13;6305555;22;20011;-76
2023/09/11 06:15:04;;;;;;;28.10;14.90;;;;;;;21.19;100.00;49373.59;6305039;22;20007;-75
2023/09/11 06:17:30;;;;;;;36.60;15.65;;;;;;;21.26;100.00;52902.56;6305193;22;20452;-74
2023/09/11 06:19:55;;;;;;;32.40;16.05;;;;;;;21.25;100.00;52901.22;6277325;22;19999;-74
2023/09/11 06:22:21;;;;;;;25.60;16.57;;;;;;;21.28;100.00;51846.63;6305189;22;20314;-74
2023/09/11 06:24:46;;;;;;;35.17;18.70;;;;;;;21.41;100.00;58913.44;6305060;22;19999;-74
2023/09/11 06:27:13;;;;;;;42.53;17.27;;;;;;;21.40;100.00;56794.53;6277352;22;20013;-75
2023/09/11 06:29:39;;;;;;;32.50;16.60;;;;;;;21.46;100.00;55036.03;6304906;22;20019;-74
2023/09/11 06:32:04;;;;;;;32.27;17.10;;;;;;;21.39;100.00;54676.84;6304435;22;20390;-74
2023/09/11 06:34:30;;;;;;;27.50;17.70;;;;;;;21.39;100.00;51151.41;6277285;22;20072;-74
2023/09/11 06:36:56;;;;;;;35.15;17.95;;;;;;;21.42;100.00;51154.00;6277173;22;20429;-75
2023/09/11 06:39:22;;;;;;;34.97;17.73;;;;;;;21.45;100.00;50804.59;6304458;22;20014;-75
2023/09/11 06:41:48;;;;;;;24.37;17.23;;;;;;;21.53;100.00;48697.00;6304626;22;20039;-74
2023/09/11 06:44:13;;;;;;;33.58;19.13;;;;;;;21.59;100.00;49054.22;6304029;22;20003;-75
2023/09/11 06:46:39;;;;;;;41.67;19.87;;;;;;;21.68;100.00;51176.44;6276297;22;20719;-75
2023/09/11 06:49:04;;;;;;;32.73;18.80;;;;;;;21.75;100.00;54710.00;6303538;22;20465;-75
2023/09/11 06:51:29;;;;;;;29.20;18.17;;;;;;;21.84;100.00;56483.47;6304146;22;20000;-75
2023/09/11 06:53:55;;;;;;;40.23;20.37;;;;;;;21.97;100.00;57202.75;6275277;22;20278;-74
2023/09/11 06:56:21;;;;;;;27.10;17.63;;;;;;;22.00;100.00;59325.34;6275806;22;20052;-74
2023/09/11 06:58:46;;;;;;;26.73;19.35;;;;;;;22.06;100.00;60745.53;6304075;22;20006;-75
2023/09/11 07:01:13;;;;;;;31.87;18.80;;;;;;;22.10;100.00;63225.91;6302737;22;20014;-75
2023/09/11 07:03:38;;;;;;;;;;;;;;;22.08;100.00;63577.66;6304467;22;20007;-75
2023/09/11 07:06:03;;;;;;;27.52;18.20;;;;;;;22.09;100.00;62163.91;6303464;22;19907;-75
2023/09/11 07:08:29;;;;;;;30.60;20.30;;;;;;;22.01;100.00;60386.88;6301897;22;20090;-75
2023/09/11 07:10:55;;;;;;;26.27;18.90;;;;;;;22.32;100.00;61480.19;6303580;22;20030;-74
2023/09/11 07:13:21;;;;;;;32.33;20.27;;;;;;;22.52;100.00;69649.50;6304472;22;20417;-75
2023/09/11 07:16:00;;;;;;;35.13;20.65;;;;;;;22.91;100.00;81424.50;6303372;22;20018;-75
2023/09/11 07:18:27;;;;;;;33.83;21.15;;;;;;;23.14;100.00;102519.38;6303999;22;20425;-75
2023/09/11 07:20:53;;;;;;;37.88;21.90;;;;;;;23.40;100.00;117271.22;6303249;22;20010;-75
2023/09/11 07:23:19;;;;;;;;;;;;;;;23.68;100.00;131733.31;6304340;22;20430;-75
2023/09/11 07:25:46;;;;;;;35.30;19.70;;;;;;;23.72;100.00;141134.66;6303408;22;19929;-75
2023/09/11 07:28:12;;;;;;;;;;;;;;;23.71;100.00;138241.22;6304706;22;20010;-76
2023/09/11 07:30:38;;;;;;;37.35;21.45;;;;;;;23.55;100.00;132065.59;6303799;22;19902;-76
2023/09/11 07:33:03;;;;;;;33.88;22.35;;;;;;;23.56;100.00;131346.28;6302070;22;20035;-76
2023/09/11 07:35:29;;;;;;;35.00;21.80;;;;;;;23.49;100.00;129168.66;6276065;22;20109;-76
2023/09/11 07:37:54;;;;;;;38.67;22.20;;;;;;;23.52;100.00;125210.41;6276906;22;20235;-76
2023/09/11 07:40:19;;;;;;;33.20;21.73;;;;;;;23.42;100.00;128431.75;6301184;22;20003;-75
2023/09/11 07:42:45;;;;;;;35.17;20.70;;;;;;;23.48;100.00;119085.38;6302229;22;20086;-76
2023/09/11 07:45:11;;;;;;;35.10;23.43;;;;;;;23.41;100.00;119070.53;6303357;22;20333;-76
2023/09/11 07:47:36;;;;;;;39.83;21.65;;;;;;;23.37;100.00;119063.63;6303567;22;19999;-75
2023/09/11 07:50:02;;;;;;;45.13;21.70;;;;;;;23.36;100.00;113672.31;6304213;22;20005;-76
2023/09/11 07:52:27;;;;;;;46.90;22.30;;;;;;;23.42;100.00;112965.53;6303516;22;20397;-76
2023/09/11 07:54:52;;;;;;;44.23;20.70;;;;;;;23.47;100.00;119802.66;6276473;22;20010;-75
2023/09/11 07:57:18;;;;;;;38.53;20.80;;;;;;;23.51;100.00;119449.94;6303510;22;20059;-76
2023/09/11 07:59:43;;;;;;;31.13;20.80;;;;;;;23.55;100.00;121257.66;6304026;22;20007;-76
2023/09/11 08:02:08;;;;;;;31.77;19.90;;;;;;;23.56;100.00;124498.38;6303293;22;20388;-76
2023/09/11 08:04:35;;;;;;;35.97;20.33;;;;;;;23.62;100.00;128834.88;6301973;22;20003;-75
2023/09/11 08:07:01;;;;;;;33.63;19.35;;;;;;;23.67;100.00;128845.59;6275702;22;20078;-75
2023/09/11 08:09:27;;;;;;;30.05;20.42;;;;;;;23.79;100.00;137174.22;6304306;22;20056;-76
2023/09/11 08:11:52;;;;;;;29.40;20.07;;;;;;;23.83;100.00;146229.03;6275914;22;20738;-75
2023/09/11 08:14:17;;;;;;;31.63;17.07;;;;;;;23.86;100.00;153393.00;6302219;22;20107;-76
2023/09/11 08:16:43;;;;;;;33.07;17.57;;;;;;;23.94;100.00;153318.59;6300715;22;20013;-75
2023/09/11 08:19:09;;;;;;;31.87;16.07;;;;;;;24.03;100.00;157519.97;6301921;22;20035;-76
2023/09/11 08:21:34;;;;;;;25.95;15.90;;;;;;;24.04;100.00;157523.91;6275795;22;20068;-76
2023/09/11 08:23:59;;;;;;;28.47;15.93;;;;;;;24.13;100.00;157546.13;6303245;22;20030;-76
2023/09/11 08:26:25;;;;;;;24.20;16.47;;;;;;;24.16;100.00;157555.28;6302425;22;20011;-76
2023/09/11 08:28:50;;;;;;;28.43;15.90;;;;;;;24.36;100.00;157606.28;6301851;22;20495;-76
2023/09/11 08:31:15;;;;;;;28.27;15.87;;;;;;;24.40;100.00;157618.09;6303211;22;20419;-76
2023/09/11 08:33:41;;;;;;;29.67;16.77;;;;;;;24.47;100.00;157636.41;6301687;22;20023;-75
2023/09/11 08:36:08;;;;;;;32.37;15.37;;;;;;;24.58;100.00;157663.91;6239472;22;20015;-75
2023/09/11 08:38:33;;;;;;;32.53;17.48;;;;;;;24.73;100.00;157703.16;6214714;23;20698;-72
2023/09/11 08:40:58;;;;;;;30.60;15.37;;;;;;;24.88;100.00;157743.78;6240787;23;20011;-74
2023/09/11 08:43:24;;;;;;;25.07;13.37;;;;;;;25.02;100.00;157779.09;6241442;23;20073;-74
2023/09/11 08:45:50;;;;;;;22.83;11.50;;;;;;;25.11;100.00;157802.63;6214593;23;20062;-74
2023/09/11 08:48:17;;;;;;;26.33;12.20;;;;;;;25.12;100.00;157805.28;6214729;23;20229;-74
2023/09/11 08:50:48;;;;;;;18.88;10.00;;;;;;;25.25;100.00;157839.34;6214750;23;20008;-74
2023/09/11 08:53:17;;;;;;;19.25;10.02;;;;;;;25.37;100.00;157870.75;6241457;23;20061;-74
2023/09/11 08:55:42;;;;;;;21.60;10.63;;;;;;;25.46;100.00;157894.34;6213738;23;20028;-72
2023/09/11 08:58:12;;;;;;;21.05;8.88;;;;;;;25.58;100.00;157927.09;6214265;23;20024;-73
2023/09/11 09:00:38;;;;;;;20.90;8.98;;;;;;;25.67;100.00;157949.34;6241015;23;20004;-72
2023/09/11 09:03:04;;;;;;;21.77;8.30;;;;;;;25.89;100.00;158006.94;6241203;23;20008;-73
2023/09/11 09:05:31;;;;;;;14.27;7.75;;;;;;;26.13;100.00;158069.84;6241548;23;20043;-73
2023/09/11 09:07:58;;;;;;;22.10;7.38;;;;;;;26.33;100.00;158122.25;6239772;23;20010;-76
2023/09/11 09:10:25;;;;;;;13.80;6.63;;;;;;;26.54;100.00;158177.28;6240204;23;19996;-73
2023/09/11 09:12:50;;;;;;;;;;;;;;;26.46;100.00;158157.63;6242508;23;20496;-74
2023/09/11 09:15:18;;;;;;;20.08;7.47;;;;;;;26.53;100.00;158176.00;6241111;23;19915;-73
2023/09/11 09:17:43;;;;;;;15.57;6.38;;;;;;;26.60;100.00;158193.06;6241184;23;20011;-73
2023/09/11 09:20:10;;;;;;;15.15;7.10;;;;;;;26.40;100.00;158141.91;6214150;23;20073;-74
2023/09/11 09:22:59;;;;;;;21.13;6.80;;;;;;;26.54;100.00;158177.28;6241246;23;20079;-74
2023/09/11 09:25:26;;;;;;;15.95;6.55;;;;;;;26.57;100.00;158185.22;6241047;23;20015;-73
2023/09/11 09:27:52;;;;;;;14.70;6.50;;;;;;;26.78;100.00;158240.25;6243000;23;20008;-74
2023/09/11 09:30:23;;;;;;;14.25;7.07;;;;;;;26.62;100.00;158198.34;6243817;23;20416;-73
2023/09/11 09:32:50;;;;;;;15.98;6.72;;;;;;;26.71;100.00;158223.22;6242967;23;20431;-74
2023/09/11 09:35:33;;;;;;;12.20;6.13;;;;;;;26.80;100.00;158246.81;6263510;22;20019;-73
2023/09/11 09:38:00;;;;;;;15.07;5.47;;;;;;;26.95;100.00;158284.81;6273722;22;20007;-74
2023/09/11 09:40:39;;;;;;;12.65;6.13;;;;;;;26.97;100.00;158291.38;6273766;22;20724;-73
2023/09/11 09:43:08;;;;;;;13.70;5.50;;;;;;;27.18;100.00;158345.13;6272950;22;20015;-73
2023/09/11 09:45:39;;;;;;;9.75;5.03;;;;;;;27.18;100.00;158346.47;6273920;22;20484;-72
2023/09/11 09:48:20;;;;;;;19.95;4.60;;;;;;;27.29;100.00;158373.97;6273628;22;20095;-74
2023/09/11 09:51:01;;;;;;;10.20;5.10;;;;;;;27.55;100.00;158442.16;6246085;22;20022;-73
2023/09/11 09:53:35;;;;;;;10.57;4.75;;;;;;;27.66;100.00;158471.00;6246006;22;20014;-73
2023/09/11 09:56:07;;;;;;;12.52;5.30;;;;;;;27.49;100.00;158426.44;6246348;22;20068;-73
2023/09/11 09:58:38;;;;;;;11.02;4.93;;;;;;;27.75;100.00;158494.63;6246444;22;20092;-73
2023/09/11 10:01:06;;;;;;;17.05;5.95;;;;;;;27.75;100.00;158494.63;6273578;22;20053;-74
2023/09/11 10:03:49;;;;;;;10.57;6.45;;;;;;;27.68;100.00;158476.28;6246760;22;20400;-74
2023/09/11 10:06:18;;;;;;;14.32;6.75;;;;;;;27.79;100.00;158505.16;6273670;22;20337;-74
2023/09/11 10:08:43;;;;;;;11.57;5.85;;;;;;;27.86;100.00;158523.50;6245742;22;20010;-74
2023/09/11 10:11:27;;;;;;;15.10;6.72;;;;;;;28.05;100.00;158573.31;6273627;22;20078;-74
2023/09/11 10:13:54;;;;;;;16.48;5.43;;;;;;;28.09;100.00;158585.16;6273442;22;20425;-74
2023/09/11 10:16:20;;;;;;;14.27;5.70;;;;;;;28.08;100.00;158582.53;6273736;22;20004;-74
2023/09/11 10:18:47;;;;;;;13.77;5.90;;;;;;;28.05;100.00;158573.31;6246138;22;20015;-74
2023/09/11 10:21:12;;;;;;;13.88;5.72;;;;;;;28.25;100.00;158625.81;6272947;22;20003;-74
2023/09/11 10:23:38;;;;;;;10.63;4.70;;;;;;;28.21;100.00;158615.28;6246401;22;20008;-74
2023/09/11 10:26:07;;;;;;;12.93;4.20;;;;;;;28.18;100.00;158607.44;6272842;22;20225;-74
2023/09/11 10:28:37;;;;;;;11.20;4.50;;;;;;;28.21;100.00;158615.28;6246153;22;20400;-74
2023/09/11 10:31:15;;;;;;;18.45;5.65;;;;;;;28.06;100.00;158577.25;6245941;22;19999;-74
2023/09/11 10:33:42;;;;;;;11.85;5.65;;;;;;;28.18;100.00;158607.44;6274250;22;20003;-74
2023/09/11 10:36:12;;;;;;;13.30;5.63;;;;;;;28.21;100.00;158616.63;6272500;22;20022;-74
2023/09/11 10:38:38;;;;;;;13.90;5.65;;;;;;;28.37;100.00;158657.28;6245597;22;20348;-74
2023/09/11 10:41:04;;;;;;;;;;;;;;;28.40;100.00;158666.56;6245898;22;20007;-74
2023/09/11 10:43:30;;;;;;;11.73;6.20;;;;;;;28.51;100.00;158694.06;6273612;22;20325;-74
2023/09/11 10:45:55;;;;;;;6.45;5.13;;;;;;;28.49;100.00;158690.13;6273154;22;19999;-74
2023/09/11 10:48:31;;;;;;;12.53;6.13;;;;;;;28.52;100.00;158698.03;6245554;22;20077;-74
2023/09/11 10:50:58;;;;;;;17.08;6.43;;;;;;;28.71;100.00;158747.84;6246355;22;20003;-74
2023/09/11 10:53:30;;;;;;;15.57;5.90;;;;;;;28.86;100.00;158785.94;6272929;22;20008;-74
2023/09/11 10:55:59;;;;;;;12.80;5.75;;;;;;;28.89;100.00;158793.78;6272016;22;20010;-75
2023/09/11 10:58:28;;;;;;;18.27;6.63;;;;;;;28.98;100.00;158818.75;6273165;22;20015;-74
2023/09/11 11:24:10;;;;;;;18.60;8.35;;;;;;;29.43;100.00;158935.59;6208214;22;20024;-75
2023/09/11 11:26:37;;;;;;;20.10;8.63;;;;;;;29.19;100.00;158872.59;6272940;22;20027;-76
2023/09/11 11:29:03;;;;;;;19.42;8.63;;;;;;;29.12;100.00;158854.25;6273012;22;20493;-74
2023/09/11 11:31:30;;;;;;;16.65;7.78;;;;;;;29.39;100.00;158925.13;6244851;22;20011;-75
2023/09/11 11:33:58;;;;;;;22.00;9.65;;;;;;;28.75;100.00;158757.09;6272555;22;19999;-76
2023/09/11 11:36:26;;;;;;;15.85;9.13;;;;;;;28.90;100.00;158796.41;6273398;22;20069;-74
2023/09/11 11:38:55;;;;;;;18.08;10.20;;;;;;;29.05;100.00;158837.16;6273404;22;20064;-75
2023/09/11 11:41:21;;;;;;;17.17;9.85;;;;;;;28.88;100.00;158792.50;6273020;22;20031;-77
2023/09/11 11:43:46;;;;;;;17.23;8.63;;;;;;;28.95;100.00;158809.53;6273372;22;20006;-75
2023/09/11 11:46:15;;;;;;;16.35;9.15;;;;;;;28.51;100.00;158695.41;6272895;22;20495;-76
2023/09/11 11:48:41;;;;;;;20.15;10.18;;;;;;;28.23;100.00;158621.84;6245158;22;20010;-75
2023/09/11 11:51:06;;;;;;;15.05;8.82;;;;;;;28.52;100.00;158696.69;6272035;22;20314;-75